createdAt,value
2023-02-19T00:01:53.690Z,13.30
2023-02-19T00:04:24.162Z,13.30
2023-02-19T00:06:53.123Z,13.30
2023-02-19T00:09:21.879Z,13.30
2023-02-19T00:11:48.937Z,13.30
2023-02-19T00:14:24.013Z,13.30
2023-02-19T00:16:53.077Z,13.30
2023-02-19T00:19:23.214Z,13.30
2023-02-19T00:21:52.928Z,13.30
2023-02-19T00:24:20.134Z,13.30
2023-02-19T00:26:51.828Z,13.30
2023-02-19T00:29:20.866Z,13.30
2023-02-19T00:31:50.436Z,13.30
2023-02-19T00:34:22.410Z,13.30
2023-02-19T00:36:49.022Z,13.20
2023-02-19T00:39:20.688Z,13.30
2023-02-19T00:41:47.490Z,13.30
2023-02-19T00:44:20.932Z,13.30
2023-02-19T00:46:48.326Z,13.30
2023-02-19T00:49:25.166Z,13.30
2023-02-19T00:51:53.988Z,13.30
2023-02-19T00:54:23.476Z,13.30
2023-02-19T00:56:50.471Z,13.30
2023-02-19T00:59:17.388Z,13.30
2023-02-19T01:01:46.533Z,13.30
2023-02-19T01:04:13.405Z,13.30
2023-02-19T01:06:41.060Z,13.30
2023-02-19T01:09:09.699Z,13.30
2023-02-19T01:11:36.297Z,13.40
2023-02-19T01:14:08.440Z,13.30
2023-02-19T01:16:35.112Z,13.40
2023-02-19T01:19:03.871Z,13.40
2023-02-19T01:21:33.205Z,13.40
2023-02-19T01:23:59.901Z,13.40
2023-02-19T01:26:30.156Z,13.40
2023-02-19T01:29:00.273Z,13.40
2023-02-19T01:31:30.727Z,13.50
2023-02-19T01:34:01.916Z,13.50
2023-02-19T01:36:32.003Z,13.50
2023-02-19T01:39:03.813Z,13.50
2023-02-19T01:41:41.158Z,13.50
2023-02-19T01:44:17.676Z,13.50
2023-02-19T01:46:49.632Z,13.50
2023-02-19T01:49:20.954Z,13.50
2023-02-19T01:51:54.331Z,13.60
2023-02-19T01:54:25.649Z,13.50
2023-02-19T01:56:52.880Z,13.50
2023-02-19T01:59:19.942Z,13.50
2023-02-19T02:01:48.699Z,13.50
2023-02-19T02:04:19.488Z,13.50
2023-02-19T02:06:57.190Z,13.50
2023-02-19T02:09:47.578Z,13.50
2023-02-19T02:12:14.599Z,13.50
2023-02-19T02:14:45.146Z,13.50
2023-02-19T02:17:17.365Z,13.50
2023-02-19T02:20:31.100Z,13.40
2023-02-19T02:23:19.623Z,13.50
2023-02-19T02:25:58.019Z,13.50
2023-02-19T02:28:36.407Z,13.50
2023-02-19T02:31:21.383Z,13.50
2023-02-19T02:34:04.611Z,13.50
2023-02-19T02:36:36.033Z,13.40
2023-02-19T02:39:10.443Z,13.50
2023-02-19T02:41:44.873Z,13.40
2023-02-19T02:44:13.075Z,13.40
2023-02-19T02:46:44.953Z,13.40
2023-02-19T02:49:21.339Z,13.40
2023-02-19T02:51:56.388Z,13.40
2023-02-19T02:54:51.865Z,13.40
2023-02-19T02:57:25.960Z,13.40
2023-02-19T02:59:58.527Z,13.30
2023-02-19T03:02:31.017Z,13.40
2023-02-19T03:05:37.925Z,13.30
2023-02-19T03:08:04.825Z,13.40
2023-02-19T03:10:39.683Z,13.40
2023-02-19T03:13:30.410Z,13.40
2023-02-19T03:16:26.465Z,13.40
2023-02-19T03:19:16.935Z,13.40
2023-02-19T03:21:57.288Z,13.40
2023-02-19T03:24:47.944Z,13.40
2023-02-19T03:27:16.889Z,13.40
2023-02-19T03:29:50.083Z,13.40
2023-02-19T03:32:34.146Z,13.40
2023-02-19T03:35:11.459Z,13.40
2023-02-19T03:37:48.753Z,13.40
2023-02-19T03:40:18.898Z,13.40
2023-02-19T03:43:25.869Z,13.40
2023-02-19T03:46:07.719Z,13.40
2023-02-19T03:48:51.338Z,13.40
2023-02-19T03:51:32.515Z,13.40
2023-02-19T03:54:12.870Z,13.40
2023-02-19T03:57:16.804Z,13.40
2023-02-19T04:00:00.309Z,13.30
2023-02-19T04:02:42.880Z,13.30
2023-02-19T04:05:21.001Z,13.30
2023-02-19T04:07:53.050Z,13.20
2023-02-19T04:10:29.057Z,13.20
2023-02-19T04:13:13.993Z,13.10
2023-02-19T04:15:44.145Z,13.10
2023-02-19T04:18:22.742Z,13.10
2023-02-19T04:20:55.876Z,13.00
2023-02-19T04:23:29.138Z,13.00
2023-02-19T04:26:02.237Z,12.90
2023-02-19T04:28:29.841Z,12.90
2023-02-19T04:30:56.442Z,12.90
2023-02-19T04:33:22.998Z,12.90
2023-02-19T04:35:51.718Z,12.90
2023-02-19T04:38:18.294Z,12.80
2023-02-19T04:40:46.110Z,12.80
2023-02-19T04:43:18.448Z,12.80
2023-02-19T04:45:47.671Z,12.80
2023-02-19T04:48:18.004Z,12.80
2023-02-19T04:50:44.601Z,12.80
2023-02-19T04:53:16.302Z,12.80
2023-02-19T04:55:42.881Z,12.80
2023-02-19T04:58:12.185Z,12.70
2023-02-19T05:00:38.781Z,12.80
2023-02-19T05:03:05.405Z,12.70
2023-02-19T05:05:37.383Z,12.70
2023-02-19T05:08:06.622Z,12.70
2023-02-19T05:10:33.778Z,12.70
2023-02-19T05:13:00.353Z,12.70
2023-02-19T05:15:29.459Z,12.70
2023-02-19T05:17:58.023Z,12.70
2023-02-19T05:20:24.985Z,12.70
2023-02-19T05:22:56.469Z,12.70
2023-02-19T05:25:25.270Z,12.70
2023-02-19T05:28:14.753Z,12.70
2023-02-19T05:30:41.314Z,12.70
2023-02-19T05:33:09.109Z,12.70
2023-02-19T05:35:41.665Z,12.70
2023-02-19T05:38:11.307Z,12.70
2023-02-19T05:40:46.388Z,12.60
2023-02-19T05:43:13.639Z,12.70
2023-02-19T05:45:45.620Z,12.60
2023-02-19T05:48:12.797Z,12.60
2023-02-19T05:50:39.988Z,12.60
2023-02-19T05:53:12.635Z,12.60
2023-02-19T05:55:39.274Z,12.50
2023-02-19T05:58:08.330Z,12.50
2023-02-19T06:00:39.325Z,12.50
2023-02-19T06:03:10.217Z,12.50
2023-02-19T06:05:39.774Z,12.50
2023-02-19T06:08:09.337Z,12.50
2023-02-19T06:10:38.303Z,12.50
2023-02-19T06:13:04.895Z,12.50
2023-02-19T06:15:34.844Z,12.50
2023-02-19T06:18:06.220Z,12.50
2023-02-19T06:20:35.778Z,12.50
2023-02-19T06:23:05.342Z,12.50
2023-02-19T06:25:31.865Z,12.50
2023-02-19T06:27:58.498Z,12.50
2023-02-19T06:30:25.191Z,12.50
2023-02-19T06:32:53.670Z,12.50
2023-02-19T06:35:20.539Z,12.50
2023-02-19T06:37:48.492Z,12.50
2023-02-19T06:40:18.286Z,12.50
2023-02-19T06:42:44.925Z,12.50
2023-02-19T06:45:19.060Z,12.50
2023-02-19T06:47:50.649Z,12.50
2023-02-19T06:50:17.245Z,12.50
2023-02-19T06:52:44.146Z,12.40
2023-02-19T06:55:13.338Z,12.50
2023-02-19T06:57:39.905Z,12.40
2023-02-19T07:00:07.079Z,12.40
2023-02-19T07:02:33.687Z,12.40
2023-02-19T07:05:02.743Z,12.40
2023-02-19T07:07:31.855Z,12.40
2023-02-19T07:09:58.443Z,12.40
2023-02-19T07:12:29.713Z,12.40
2023-02-19T07:14:58.678Z,12.40
2023-02-19T07:17:25.301Z,12.40
2023-02-19T07:19:54.442Z,12.40
2023-02-19T07:22:21.116Z,12.40
2023-02-19T07:24:53.412Z,12.50
2023-02-19T07:27:19.994Z,12.50
2023-02-19T07:29:51.860Z,12.50
2023-02-19T07:32:20.380Z,12.50
2023-02-19T07:34:49.362Z,12.50
2023-02-19T07:37:15.951Z,12.50
2023-02-19T07:39:42.523Z,12.50
2023-02-19T07:42:09.144Z,12.50
2023-02-19T07:44:37.618Z,12.50
2023-02-19T07:47:04.222Z,12.60
2023-02-19T07:49:30.846Z,12.50
2023-02-19T07:51:57.395Z,12.50
2023-02-19T07:54:26.190Z,12.60
2023-02-19T07:56:52.735Z,12.60
2023-02-19T07:59:21.455Z,12.60
2023-02-19T08:02:07.062Z,12.60
2023-02-19T08:04:33.710Z,12.60
2023-02-19T08:07:02.503Z,12.70
2023-02-19T08:09:32.149Z,12.70
2023-02-19T08:12:17.637Z,12.70
2023-02-19T08:14:44.271Z,12.70
2023-02-19T08:17:10.867Z,12.80
2023-02-19T08:19:37.571Z,12.80
2023-02-19T08:22:04.190Z,12.90
2023-02-19T08:24:33.631Z,12.90
2023-02-19T08:27:00.281Z,12.90
2023-02-19T08:29:26.890Z,12.90
2023-02-19T08:31:53.485Z,12.90
2023-02-19T08:34:21.292Z,13.00
2023-02-19T08:36:47.852Z,13.00
2023-02-19T08:39:14.450Z,13.00
2023-02-19T08:41:41.054Z,13.00
2023-02-19T08:44:07.657Z,13.00
2023-02-19T08:46:36.597Z,13.10
2023-02-19T08:49:03.349Z,13.10
2023-02-19T08:51:29.945Z,13.00
2023-02-19T08:53:56.496Z,13.00
2023-02-19T08:56:23.122Z,13.00
2023-02-19T08:58:49.700Z,13.00
2023-02-19T09:01:18.375Z,12.90
2023-02-19T09:03:45.349Z,12.90
2023-02-19T09:06:17.748Z,12.90
2023-02-19T09:08:44.614Z,12.80
2023-02-19T09:11:11.679Z,12.90
2023-02-19T09:13:38.466Z,12.90
2023-02-19T09:16:05.865Z,12.80
2023-02-19T09:18:33.068Z,12.80
2023-02-19T09:21:01.427Z,12.80
2023-02-19T09:23:28.772Z,12.80
2023-02-19T09:26:00.561Z,12.70
2023-02-19T09:28:28.087Z,12.80
2023-02-19T09:30:54.758Z,12.80
2023-02-19T09:33:21.405Z,12.80
2023-02-19T09:35:48.968Z,12.80
2023-02-19T09:38:15.521Z,12.80
2023-02-19T09:40:42.140Z,12.90
2023-02-19T09:43:16.478Z,12.90
2023-02-19T09:45:45.503Z,12.90
2023-02-19T09:48:12.554Z,13.00
2023-02-19T09:50:48.471Z,13.00
2023-02-19T09:53:26.308Z,13.00
2023-02-19T09:55:53.064Z,13.00
2023-02-19T09:58:38.301Z,13.10
2023-02-19T10:01:05.948Z,13.10
2023-02-19T10:03:39.084Z,13.20
2023-02-19T10:06:16.221Z,13.20
2023-02-19T10:08:46.578Z,13.20
2023-02-19T10:11:16.223Z,13.30
2023-02-19T10:13:50.690Z,13.40
2023-02-19T10:16:22.413Z,13.40
2023-02-19T10:18:49.431Z,13.50
2023-02-19T10:21:25.450Z,13.50
2023-02-19T10:23:56.377Z,13.60
2023-02-19T10:26:24.025Z,13.60
2023-02-19T10:28:50.649Z,13.60
2023-02-19T10:31:21.044Z,13.60
2023-02-19T10:33:52.027Z,13.60
2023-02-19T10:36:37.141Z,13.50
2023-02-19T10:39:20.662Z,13.60
2023-02-19T10:41:51.575Z,13.60
2023-02-19T10:44:27.282Z,13.60
2023-02-19T10:46:57.782Z,13.60
2023-02-19T10:49:31.843Z,13.60
2023-02-19T10:52:17.435Z,13.60
2023-02-19T10:54:45.526Z,13.70
2023-02-19T10:57:15.176Z,13.70
2023-02-19T10:59:57.995Z,13.80
2023-02-19T11:02:25.816Z,13.80
2023-02-19T11:05:30.741Z,13.90
2023-02-19T11:07:57.521Z,13.90
2023-02-19T11:10:28.767Z,14.00
2023-02-19T11:13:01.398Z,14.00
2023-02-19T11:15:33.907Z,14.00
2023-02-19T11:18:06.638Z,14.00
2023-02-19T11:20:33.549Z,14.10
2023-02-19T11:23:06.126Z,14.10
2023-02-19T11:25:33.585Z,14.10
2023-02-19T11:28:20.467Z,14.20
2023-02-19T11:30:48.358Z,14.20
2023-02-19T11:33:27.146Z,14.30
2023-02-19T11:36:33.290Z,14.30
2023-02-19T11:39:18.257Z,14.30
2023-02-19T11:41:50.289Z,14.30
2023-02-19T11:44:46.135Z,14.30
2023-02-19T11:47:32.951Z,14.20
2023-02-19T11:50:15.029Z,14.30
2023-02-19T11:52:55.697Z,14.30
2023-02-19T11:55:45.244Z,14.30
2023-02-19T11:58:40.593Z,14.30
2023-02-19T12:01:40.938Z,14.40
2023-02-19T12:04:31.818Z,14.50
2023-02-19T12:07:24.319Z,14.60
2023-02-19T12:10:18.511Z,14.70
2023-02-19T12:13:13.428Z,14.80
2023-02-19T12:18:34.468Z,15.10
2023-02-19T12:21:21.300Z,15.10
2023-02-19T12:23:47.822Z,15.20
2023-02-19T12:26:42.486Z,15.20
2023-02-19T12:29:38.041Z,15.20
2023-02-19T12:32:30.682Z,15.20
2023-02-19T12:35:22.606Z,15.20
2023-02-19T12:37:57.197Z,15.20
2023-02-19T12:40:43.459Z,15.20
2023-02-19T12:43:18.278Z,15.10
2023-02-19T12:45:58.701Z,15.10
2023-02-19T12:48:31.346Z,15.10
2023-02-19T12:51:06.288Z,15.00
2023-02-19T12:53:45.877Z,14.90
2023-02-19T12:56:42.629Z,14.80
2023-02-19T12:59:24.754Z,14.70
2023-02-19T13:02:14.944Z,14.60
2023-02-19T13:04:51.101Z,14.40
2023-02-19T13:07:23.973Z,14.30
2023-02-19T13:10:10.006Z,14.10
2023-02-19T13:12:43.212Z,14.10
2023-02-19T13:15:17.604Z,13.90
2023-02-19T13:17:53.758Z,13.90
2023-02-19T13:20:39.798Z,13.80
2023-02-19T13:23:33.298Z,13.80
2023-02-19T13:26:25.433Z,13.80
2023-02-19T13:29:12.251Z,13.70
2023-02-19T13:31:50.669Z,13.70
2023-02-19T13:34:48.485Z,13.70
2023-02-19T13:37:16.582Z,13.70
2023-02-19T13:39:49.890Z,13.70
2023-02-19T13:42:28.653Z,13.70
2023-02-19T13:44:57.974Z,13.70
2023-02-19T13:47:49.555Z,13.70
2023-02-19T13:50:25.381Z,13.80
2023-02-19T13:52:56.057Z,13.80
2023-02-19T13:55:55.278Z,13.80
2023-02-19T13:58:35.114Z,13.80
2023-02-19T14:01:08.967Z,13.80
2023-02-19T14:03:54.261Z,13.80
2023-02-19T14:06:21.564Z,13.80
2023-02-19T14:08:53.294Z,13.80
2023-02-19T14:11:42.797Z,13.80
2023-02-19T14:14:27.623Z,13.80
2023-02-19T14:17:05.510Z,13.80
2023-02-19T14:20:11.546Z,13.80
2023-02-19T14:22:49.750Z,13.70
2023-02-19T14:25:28.263Z,13.70
2023-02-19T14:28:16.606Z,13.70
2023-02-19T14:30:51.576Z,13.70
2023-02-19T14:33:32.625Z,13.70
2023-02-19T14:36:25.240Z,13.70
2023-02-19T14:38:56.268Z,13.70
2023-02-19T14:41:24.249Z,13.70
2023-02-19T14:43:53.723Z,13.70
2023-02-19T14:46:51.724Z,13.70
2023-02-19T14:49:25.828Z,13.60
2023-02-19T14:51:59.756Z,13.70
2023-02-19T14:54:38.798Z,13.60
2023-02-19T14:57:14.398Z,13.60
2023-02-19T14:59:51.368Z,13.60
2023-02-19T15:02:20.578Z,13.60
2023-02-19T15:04:47.458Z,13.60
2023-02-19T15:07:20.384Z,13.50
2023-02-19T15:09:53.413Z,13.60
2023-02-19T15:12:26.406Z,13.50
2023-02-19T15:14:59.523Z,13.60
2023-02-19T15:17:30.168Z,13.50
2023-02-19T15:20:02.841Z,13.50
2023-02-19T15:22:32.830Z,13.50
2023-02-19T15:25:04.125Z,13.50
2023-02-19T15:27:32.826Z,13.50
2023-02-19T15:29:59.762Z,13.40
2023-02-19T15:32:27.707Z,13.50
2023-02-19T15:34:59.546Z,13.50
2023-02-19T15:37:28.957Z,13.40
2023-02-19T15:39:57.671Z,13.50
2023-02-19T15:42:31.975Z,13.50
2023-02-19T15:45:01.353Z,13.50
2023-02-19T15:47:43.668Z,13.50
2023-02-19T15:50:26.418Z,13.50
2023-02-19T15:53:25.678Z,13.40
2023-02-19T15:56:11.946Z,13.40
2023-02-19T15:58:46.910Z,13.40
2023-02-19T16:01:25.376Z,13.30
2023-02-19T16:03:53.954Z,13.30
2023-02-19T16:06:23.618Z,13.20
2023-02-19T16:09:01.750Z,13.20
2023-02-19T16:11:59.480Z,13.10
2023-02-19T16:14:34.210Z,13.10
2023-02-19T16:17:21.123Z,13.00
2023-02-19T16:20:01.143Z,13.00
2023-02-19T16:22:34.589Z,13.00
2023-02-19T16:25:04.537Z,12.90
2023-02-19T16:27:35.134Z,12.90
2023-02-19T16:30:25.499Z,12.90
2023-02-19T16:33:31.678Z,12.90
2023-02-19T16:35:58.782Z,12.90
2023-02-19T16:38:25.398Z,12.80
2023-02-19T16:40:52.258Z,12.80
2023-02-19T16:43:26.890Z,12.80
2023-02-19T16:45:53.647Z,12.70
2023-02-19T16:48:22.109Z,12.70
2023-02-19T16:50:48.745Z,12.70
2023-02-19T16:53:20.848Z,12.60
2023-02-19T16:55:47.886Z,12.60
2023-02-19T16:58:14.490Z,12.50
2023-02-19T17:00:41.318Z,12.50
2023-02-19T17:03:11.566Z,12.40
2023-02-19T17:05:39.781Z,12.40
2023-02-19T17:08:55.986Z,12.30
2023-02-19T17:11:25.146Z,12.30
2023-02-19T17:13:51.810Z,12.30
2023-02-19T17:16:24.273Z,12.20
2023-02-19T17:18:51.177Z,12.20
2023-02-19T17:21:29.515Z,12.20
2023-02-19T17:23:59.395Z,12.10
2023-02-19T17:26:28.833Z,12.10
2023-02-19T17:29:03.680Z,12.10
2023-02-19T17:31:30.489Z,12.00
2023-02-19T17:33:58.749Z,12.00
2023-02-19T17:36:30.531Z,11.90
2023-02-19T17:39:01.721Z,11.90
2023-02-19T17:41:29.110Z,11.90
2023-02-19T17:43:55.898Z,11.90
2023-02-19T17:46:25.095Z,11.90
2023-02-19T17:48:52.551Z,11.80
2023-02-19T17:51:21.592Z,11.90
2023-02-19T17:53:48.255Z,11.80
2023-02-19T17:56:20.733Z,11.80
2023-02-19T17:58:47.673Z,11.80
2023-02-19T18:01:14.630Z,11.80
2023-02-19T18:03:41.770Z,11.80
2023-02-19T18:06:08.567Z,11.80
2023-02-19T18:08:35.233Z,11.80
2023-02-19T18:11:02.846Z,11.80
2023-02-19T18:13:32.206Z,11.70
2023-02-19T18:15:58.791Z,11.70
2023-02-19T18:18:25.458Z,11.60
2023-02-19T18:20:52.306Z,11.60
2023-02-19T18:23:21.116Z,11.50
2023-02-19T18:25:47.738Z,11.50
2023-02-19T18:28:14.956Z,11.50
2023-02-19T18:30:41.726Z,11.40
2023-02-19T18:33:10.693Z,11.40
2023-02-19T18:35:46.358Z,11.40
2023-02-19T18:38:13.481Z,11.30
2023-02-19T18:40:47.428Z,11.30
2023-02-19T18:43:14.058Z,11.20
2023-02-19T18:45:43.110Z,11.20
2023-02-19T18:48:10.861Z,11.10
2023-02-19T18:50:39.716Z,11.10
2023-02-19T18:53:09.474Z,11.10
2023-02-19T18:55:38.262Z,11.00
2023-02-19T18:58:07.411Z,11.00
2023-02-19T19:00:38.641Z,10.90
2023-02-19T19:03:06.315Z,10.90
2023-02-19T19:05:35.574Z,10.80
2023-02-19T19:08:10.127Z,10.80
2023-02-19T19:10:36.741Z,10.80
2023-02-19T19:13:03.310Z,10.70
2023-02-19T19:15:31.195Z,10.70
2023-02-19T19:18:00.337Z,10.70
2023-02-19T19:20:26.927Z,10.60
2023-02-19T19:22:56.494Z,10.60
2023-02-19T19:25:30.589Z,10.60
2023-02-19T19:27:59.493Z,10.60
2023-02-19T19:30:30.357Z,10.60
2023-02-19T19:32:58.023Z,10.60
2023-02-19T19:35:24.570Z,10.50
2023-02-19T19:37:51.414Z,10.50
2023-02-19T19:40:19.844Z,10.50
2023-02-19T19:42:52.020Z,10.50
2023-02-19T19:45:18.749Z,10.50
2023-02-19T19:47:48.339Z,10.50
2023-02-19T19:50:18.181Z,10.50
2023-02-19T19:52:49.090Z,10.50
2023-02-19T19:55:18.293Z,10.50
2023-02-19T19:57:46.842Z,10.50
2023-02-19T20:00:19.927Z,10.50
2023-02-19T20:02:46.972Z,10.40
2023-02-19T20:05:19.646Z,10.40
2023-02-19T20:07:54.652Z,10.40
2023-02-19T20:10:23.888Z,10.40
2023-02-19T20:12:50.891Z,10.40
2023-02-19T20:15:24.143Z,10.40
2023-02-19T20:17:53.233Z,10.40
2023-02-19T20:20:22.446Z,10.40
2023-02-19T20:22:54.494Z,10.40
2023-02-19T20:25:24.987Z,10.30
2023-02-19T20:27:54.067Z,10.30
2023-02-19T20:30:23.535Z,10.30
2023-02-19T20:32:50.190Z,10.30
2023-02-19T20:35:17.697Z,10.20
2023-02-19T20:37:47.884Z,10.20
2023-02-19T20:40:17.442Z,10.20
2023-02-19T20:42:43.996Z,10.20
2023-02-19T20:45:10.956Z,10.20
2023-02-19T20:47:41.950Z,10.10
2023-02-19T20:50:08.972Z,10.10
2023-02-19T20:52:37.736Z,10.10
2023-02-19T20:55:09.575Z,10.00
2023-02-19T20:57:42.378Z,10.00
2023-02-19T21:00:17.032Z,9.90
2023-02-19T21:02:48.570Z,9.90
2023-02-19T21:05:23.901Z,9.90
2023-02-19T21:07:50.489Z,9.80
2023-02-19T21:10:17.222Z,9.80
2023-02-19T21:12:50.442Z,9.80
2023-02-19T21:15:20.136Z,9.80
2023-02-19T21:17:52.452Z,9.70
2023-02-19T21:20:19.078Z,9.70
2023-02-19T21:22:48.243Z,9.70
2023-02-19T21:25:14.845Z,9.70
2023-02-19T21:27:43.939Z,9.60
2023-02-19T21:30:11.963Z,9.60
2023-02-19T21:32:38.686Z,9.60
2023-02-19T21:35:05.783Z,9.50
2023-02-19T21:37:36.119Z,9.50
2023-02-19T21:40:06.376Z,9.50
2023-02-19T21:42:33.285Z,9.50
2023-02-19T21:45:02.829Z,9.50
2023-02-19T21:47:32.639Z,9.50
2023-02-19T21:50:01.465Z,9.50
2023-02-19T21:52:30.719Z,9.40
2023-02-19T21:54:57.961Z,9.40
2023-02-19T21:57:29.292Z,9.40
2023-02-19T22:00:00.298Z,9.40
2023-02-19T22:02:28.127Z,9.40
2023-02-19T22:04:54.941Z,9.40
2023-02-19T22:07:25.958Z,9.40
2023-02-19T22:10:00.693Z,9.40
2023-02-19T22:12:28.462Z,9.40
2023-02-19T22:14:55.139Z,9.30
2023-02-19T22:17:26.391Z,9.30
2023-02-19T22:19:55.365Z,9.30
2023-02-19T22:22:26.898Z,9.30
2023-02-19T22:24:53.623Z,9.30
2023-02-19T22:27:21.780Z,9.30
2023-02-19T22:29:49.190Z,9.30
2023-02-19T22:32:33.310Z,9.30
2023-02-19T22:35:03.678Z,9.30
2023-02-19T22:37:30.341Z,9.30
2023-02-19T22:39:58.991Z,9.20
2023-02-19T22:42:29.175Z,9.20
2023-02-19T22:44:56.767Z,9.20
2023-02-19T22:47:28.357Z,9.20
2023-02-19T22:49:54.914Z,9.20
2023-02-19T22:52:21.537Z,9.20
2023-02-19T22:54:50.721Z,9.20
2023-02-19T22:57:17.285Z,9.20
2023-02-19T22:59:47.330Z,9.20
2023-02-19T23:02:16.433Z,9.20
2023-02-19T23:04:47.718Z,9.20
2023-02-19T23:07:14.434Z,9.20
2023-02-19T23:09:41.087Z,9.10
2023-02-19T23:12:13.933Z,9.10
2023-02-19T23:14:42.954Z,9.10
2023-02-19T23:17:09.523Z,9.10
2023-02-19T23:19:44.046Z,9.10
2023-02-19T23:22:18.107Z,9.10
2023-02-19T23:24:44.659Z,9.00
2023-02-19T23:27:14.122Z,9.00
2023-02-19T23:29:44.396Z,9.00
2023-02-19T23:32:25.508Z,9.00
2023-02-19T23:34:52.225Z,9.00
2023-02-19T23:37:18.973Z,9.00
2023-02-19T23:39:45.555Z,9.00
2023-02-19T23:42:20.403Z,9.00
2023-02-19T23:44:49.493Z,9.00
2023-02-19T23:47:16.135Z,9.00
2023-02-19T23:49:43.938Z,8.90
2023-02-19T23:52:12.874Z,9.00
2023-02-19T23:54:43.819Z,8.90
2023-02-19T23:57:14.848Z,8.90
2023-02-19T23:59:43.344Z,8.90
